Weather observations for the past three days for
Searcy Municipal Airport
Imperial (Metric)
Date Time (cdt) Wind (mph) Vis. (mi.) Weather Sky Cond. Temperature (ºF) Relative Humidity Wind Chill (°F) Heat Index (°F) Pressure Precipitation (in)
Air Dwpt 6 hour altimeter (in) sea level (mb) 1 hr 3 hr 6 hr
Max. Min.
06 14:56 NE 16 G 20 10.00 Fair CLR 93.9 71.1 48% 101 29.87 1011.2
06 13:56 NW 6 10.00 Fair CLR 99 73.9 45% 111 29.88 1011.4
06 12:56 SW 6 10.00 Fair CLR 97 73.9 100.9 73.9 48% 108 29.91 1012.3
06 11:56 S 5 10.00 Fair CLR 98.1 75 48% 111 29.93 1013.2
06 10:56 Vrbl 3 10.00 Fair CLR 96.1 75 51% 108 29.95 1013.7
06 09:56 Vrbl 3 10.00 Fair CLR 91.9 75.9 60% 104 29.95 1013.6
06 08:56 Calm 10.00 Fair CLR 86 73.9 67% 94 29.95 1013.7
06 07:56 Calm 10.00 Fair CLR 80.1 73.9 82% 85 29.94 1013.4
06 06:56 Calm 10.00 Fair CLR 75 73 79 73 94% 73 29.92 1012.9
06 05:56 Calm 10.00 Fair CLR 75 73 94% 73 29.91 1012.3
06 04:56 Calm 10.00 Fair CLR 77 73 88% 78 29.9 1011.9
06 03:56 Calm 10.00 Fair CLR 77 73.9 90% 78 29.89 1011.6
06 02:56 Calm 10.00 Fair CLR 78.1 73.9 87% 81 29.88 1011.4
06 01:56 Calm 10.00 Fair CLR 78.1 73.9 87% 81 29.89 1011.9
06 00:56 Calm 10.00 Fair CLR 79 75 91.9 79 88% 83 29.9 1012.0
05 23:56 Calm 10.00 Fair CLR 80.1 75 85% 85 29.89 1011.8
05 22:56 Calm 10.00 Fair CLR 82 73.9 77% 88 29.89 1011.7
05 21:56 Calm 10.00 Fair CLR 81 75.9 85% 87 29.89 1011.9
05 20:56 Calm 10.00 Fair CLR 82.9 75.9 79% 91 29.88 1011.4
05 19:56 Calm 10.00 Fair CLR 86 75.9 72% 96 29.85 1010.6
05 18:56 W 3 10.00 Fair CLR 91.9 75 102.9 91.9 58% 103 29.86 1010.7
05 17:56 NW 3 10.00 Fair CLR 96.1 72 46% 105 29.86 1010.7
05 16:56 Vrbl 3 10.00 Fair CLR 97 73 46% 107 29.86 1010.8
05 15:56 W 3 10.00 Fair CLR 96.1 73 48% 106 29.87 1011.1
05 14:56 N 5 10.00 A Few Clouds FEW070 99 70 39% 106 29.9 1012.0
05 12:56 E 6 10.00 Fair CLR 100.9 72 100.9 73.9 39% 111 29.93 1013.2
05 11:56 NW 3 10.00 Fair CLR 99 71.1 41% 107 29.96 1013.9
05 10:56 Calm 10.00 Fair CLR 97 73.9 48% 108 29.97 1014.4
05 09:56 NE 3 10.00 Fair CLR 91 75 59% 102 29.97 1014.5
05 08:56 Calm 10.00 Fair CLR 84 73.9 72% 91 29.97 1014.5
05 07:56 Calm 10.00 Fair CLR 78.1 73.9 87% 81 29.96 1014.2
05 06:56 Calm 10.00 Fair CLR 73.9 73 80.1 73.9 97% 29.95 1013.8
05 05:56 Calm 10.00 Fair CLR 75 73 94% 73 29.94 1013.5
05 04:56 Calm 10.00 Fair CLR 73.9 73 97% 29.94 1013.5
05 03:56 Calm 10.00 Fair CLR 75 73 94% 73 29.94 1013.3
05 02:56 Calm 10.00 Fair CLR 75.9 73.9 94% 75 29.94 1013.3
05 01:56 Calm 10.00 Fair CLR 77 73.9 90% 78 29.93 1013.2
05 00:56 Calm 10.00 Fair CLR 77 73.9 93.9 77 90% 78 29.94 1013.2
04 23:56 Calm 10.00 Fair CLR 78.1 73.9 87% 81 29.94 1013.2
04 21:56 Calm 10.00 Fair CLR 81 75 82% 87 29.94 1013.4
04 20:56 Calm 10.00 Fair CLR 82.9 75 77% 90 29.93 1013.1
04 19:56 Calm 10.00 Fair CLR 86 73 65% 93 29.91 1012.6
04 18:56 Calm 10.00 Fair CLR 93.9 73.9 100.9 93.9 52% 104 29.91 1012.4
04 17:56 SE 5 10.00 Fair CLR 99 70 39% 106 29.9 1012.0
04 16:56 Vrbl 3 10.00 Fair CLR 100 71.1 39% 109 29.91 1012.2
04 15:56 SE 3 10.00 Partly Cloudy FEW070 SCT090 100 71.1 39% 109 29.93 1012.9
04 14:56 Vrbl 6 10.00 A Few Clouds FEW060 100 71.1 39% 109 29.95 1013.6
04 13:56 SW 8 10.00 Fair CLR 98.1 73 45% 108 29.97 1014.4
04 12:56 SW 6 10.00 Fair CLR 97 73 97 73.9 46% 107 29.99 1015.1
04 11:56 S 7 10.00 Fair CLR 96.1 73 48% 106 30.01 1015.8
04 10:56 S 3 10.00 Fair CLR 93.9 75 54% 106 30.01 1015.8
04 09:56 Calm 10.00 Fair CLR 88 75 66% 98 30.01 1015.9
04 08:56 Calm 10.00 Fair CLR 82.9 75.9 79% 91 30.01 1015.8
04 07:56 Calm 10.00 Fair CLR 78.1 75 90% 81 30 1015.6
04 06:56 Calm 10.00 Fair CLR 73.9 73 77 73.9 97% 29.99 1015.1
04 05:56 W 3 10.00 Fair CLR 73.9 73 97% 29.98 1014.9
04 04:56 Calm 9.00 Fair CLR 75 73 94% 73 29.97 1014.6
04 03:56 Calm 10.00 Fair CLR 75 73.9 96% 73 29.96 1014.2
04 02:56 Calm 10.00 Fair CLR 75.9 73.9 94% 75 29.95 1013.8
04 01:56 W 3 10.00 Fair CLR 77 75 94% 78 29.95 1013.8
04 00:56 Calm 10.00 Fair CLR 77 75 93 77 94% 78 29.95 1014.0
03 23:56 Calm 10.00 Fair CLR 78.1 75 90% 81 29.95 1014.0
03 22:56 Calm 10.00 Fair CLR 79 75 88% 83 29.95 1013.9
03 21:56 Calm 10.00 Fair CLR 81 75.9 85% 87 29.96 1014.0
03 20:56 Calm 9.00 Fair CLR 82 75 79% 89 29.94 1013.6
03 19:56 Calm 10.00 Fair CLR 84.9 73.9 70% 92 29.93 1013.2
03 18:56 Calm 10.00 Fair CLR 93 73 98.1 93 52% 102 29.92 1012.9
03 17:56 S 5 10.00 Fair CLR 96.1 73 48% 106 29.92 1012.7
03 16:56 S 5 10.00 Fair CLR 97 73 46% 107 29.92 1012.7
03 15:56 S 8 10.00 A Few Clouds FEW060 97 73.9 48% 108 29.93 1013.3
Date Time (cdt) Wind (mph) Vis. (mi.) Weather Sky Cond. Air Dwpt Max. Min. Relative Humidity Wind Chill (°F) Heat Index (°F) altimeter (in) sea level (mb) 1 hr 3 hr 6 hr
6 hour
Temperature (ºF) Pressure Precipitation (in)